createdAt,value
2023-04-02T00:00:32.404Z,25.60
2023-04-02T00:05:32.899Z,19.30
2023-04-02T00:10:31.924Z,23.00
2023-04-02T00:15:30.159Z,22.60
2023-04-02T00:20:29.410Z,20.40
2023-04-02T00:25:29.651Z,19.90
2023-04-02T00:30:27.891Z,20.40
2023-04-02T00:35:27.156Z,17.70
2023-04-02T00:40:26.424Z,18.60
2023-04-02T00:45:26.702Z,16.00
2023-04-02T00:50:24.985Z,11.60
2023-04-02T00:55:24.290Z,7.90
2023-04-02T01:00:23.535Z,9.20
2023-04-02T01:05:22.819Z,9.40
2023-04-02T01:10:22.020Z,6.00
2023-04-02T01:15:22.139Z,5.30
2023-04-02T01:20:20.390Z,4.90
2023-04-02T01:25:20.684Z,6.80
2023-04-02T01:30:18.938Z,8.90
2023-04-02T01:35:19.229Z,8.70
2023-04-02T01:40:18.473Z,4.30
2023-04-02T01:45:16.737Z,5.10
2023-04-02T01:50:17.984Z,6.70
2023-04-02T01:55:15.266Z,5.20
2023-04-02T02:00:15.540Z,4.80
2023-04-02T02:05:13.834Z,3.90
2023-04-02T02:10:13.119Z,3.80
2023-04-02T02:15:12.397Z,3.30
2023-04-02T02:20:12.681Z,3.80
2023-04-02T02:25:12.038Z,3.90
2023-04-02T02:30:11.128Z,3.80
2023-04-02T02:35:09.389Z,2.20
2023-04-02T02:40:09.675Z,3.40
2023-04-02T02:45:06.950Z,2.80
2023-04-02T02:50:08.270Z,2.90
2023-04-02T02:55:06.549Z,3.10
2023-04-02T03:00:05.861Z,3.10
2023-04-02T03:05:05.146Z,3.20
2023-04-02T03:10:04.443Z,3.00
2023-04-02T03:15:03.765Z,2.60
2023-04-02T03:20:03.051Z,1.90
2023-04-02T03:25:03.372Z,2.30
2023-04-02T03:30:01.616Z,2.70
2023-04-02T03:35:01.901Z,2.20
2023-04-02T03:40:00.208Z,2.60
2023-04-02T03:44:59.361Z,2.50
2023-04-02T03:49:58.621Z,2.60
2023-04-02T03:54:58.136Z,2.00
2023-04-02T03:59:58.184Z,2.80
2023-04-02T04:04:56.479Z,2.10
2023-04-02T04:09:55.761Z,2.80
2023-04-02T04:14:55.063Z,1.70
2023-04-02T04:19:55.418Z,1.40
2023-04-02T04:24:53.515Z,4.30
2023-04-02T04:29:52.841Z,1.50
2023-04-02T04:34:52.143Z,1.70
2023-04-02T04:39:51.465Z,2.30
2023-04-02T04:44:50.783Z,1.70
2023-04-02T04:49:51.065Z,2.60
2023-04-02T04:54:49.369Z,2.40
2023-04-02T04:59:48.644Z,3.40
2023-04-02T05:04:47.972Z,1.80
2023-04-02T05:09:49.245Z,1.70
2023-04-02T05:14:46.518Z,2.20
2023-04-02T05:19:46.783Z,4.40
2023-04-02T05:24:45.044Z,2.10
2023-04-02T05:29:44.331Z,2.40
2023-04-02T05:34:43.683Z,2.40
2023-04-02T05:39:42.936Z,2.30
2023-04-02T05:44:42.242Z,2.20
2023-04-02T05:49:42.476Z,2.60
2023-04-02T05:54:40.738Z,2.80
2023-04-02T05:59:41.041Z,1.90
2023-04-02T06:04:38.304Z,1.70
2023-04-02T06:09:40.593Z,4.50
2023-04-02T06:14:38.854Z,1.20
2023-04-02T06:19:38.115Z,1.10
2023-04-02T06:24:38.385Z,1.40
2023-04-02T06:29:35.616Z,1.80
2023-04-02T06:34:35.874Z,1.30
2023-04-02T06:39:34.157Z,1.20
2023-04-02T06:44:34.423Z,3.80
2023-04-02T06:49:33.681Z,1.10
2023-04-02T06:54:31.949Z,1.70
2023-04-02T06:59:32.292Z,2.50
2023-04-02T07:04:31.643Z,1.40
2023-04-02T07:09:28.905Z,2.00
2023-04-02T07:14:29.224Z,1.90
2023-04-02T07:19:29.501Z,2.80
2023-04-02T07:24:28.802Z,1.50
2023-04-02T07:29:27.032Z,2.40
2023-04-02T07:34:26.306Z,2.00
2023-04-02T07:39:25.580Z,1.30
2023-04-02T07:44:24.889Z,1.30
2023-04-02T07:49:25.127Z,2.10
2023-04-02T07:54:25.406Z,1.40
2023-04-02T07:59:22.724Z,1.20
2023-04-02T08:04:23.271Z,1.80
2023-04-02T08:09:22.221Z,1.30
2023-04-02T08:14:21.487Z,1.70
2023-04-02T08:19:19.794Z,2.10
2023-04-02T08:24:19.079Z,1.20
2023-04-02T08:29:18.382Z,1.20
2023-04-02T08:34:17.631Z,1.60
2023-04-02T08:39:15.953Z,1.20
2023-04-02T08:44:17.256Z,1.30
2023-04-02T08:49:15.542Z,1.20
2023-04-02T08:54:14.822Z,0.90
2023-04-02T08:59:14.105Z,2.00
2023-04-02T09:04:13.405Z,1.90
2023-04-02T09:09:12.659Z,1.70
2023-04-02T09:14:12.970Z,2.00
2023-04-02T09:19:10.236Z,1.30
2023-04-02T09:24:10.519Z,1.40
2023-04-02T09:29:09.808Z,2.20
2023-04-02T09:34:09.102Z,1.00
2023-04-02T09:39:09.381Z,1.70
2023-04-02T09:44:08.655Z,1.50
2023-04-02T09:49:06.934Z,1.80
2023-04-02T09:54:07.209Z,1.90
2023-04-02T09:59:06.455Z,1.50
2023-04-02T10:04:05.746Z,1.80
2023-04-02T10:09:06.056Z,1.10
2023-04-02T10:14:03.315Z,1.10
2023-04-02T10:19:02.606Z,1.80
2023-04-02T10:24:02.973Z,0.90
2023-04-02T10:29:02.110Z,1.30
2023-04-02T10:34:00.400Z,2.40
2023-04-02T10:39:01.774Z,1.40
2023-04-02T10:44:03.645Z,0.90
2023-04-02T10:48:59.068Z,0.90
2023-04-02T10:53:58.413Z,1.10
2023-04-02T10:58:57.575Z,1.70
2023-04-02T11:03:58.100Z,1.90
2023-04-02T11:08:55.004Z,1.40
2023-04-02T11:13:54.342Z,1.00
2023-04-02T11:18:54.604Z,2.60
2023-04-02T11:23:51.881Z,45.40
2023-04-02T11:28:52.156Z,163.00
2023-04-02T11:33:51.608Z,218.10
2023-04-02T11:38:52.525Z,112.50
2023-04-02T11:43:50.026Z,179.50
2023-04-02T11:48:49.561Z,162.50
2023-04-02T11:53:48.418Z,182.90
2023-04-02T11:58:48.698Z,157.50
2023-04-02T12:03:46.992Z,135.30
2023-04-02T12:08:56.977Z,268.70
2023-04-02T12:13:45.605Z,367.50
2023-04-02T12:18:44.932Z,294.20
2023-04-02T12:23:44.052Z,275.80
2023-04-02T12:28:44.271Z,240.80
2023-04-02T12:33:42.572Z,219.30
2023-04-02T12:38:41.858Z,483.50
2023-04-02T12:43:42.133Z,370.30
2023-04-02T12:48:41.459Z,331.10
2023-04-02T12:53:40.742Z,305.80
2023-04-02T12:58:39.002Z,277.10
2023-04-02T13:03:39.307Z,251.20
2023-04-02T13:08:38.771Z,231.10
2023-04-02T13:13:36.985Z,210.80
2023-04-02T13:18:36.047Z,196.60
2023-04-02T13:23:38.346Z,184.00
2023-04-02T13:28:35.752Z,162.40
2023-04-02T13:33:33.816Z,157.40
2023-04-02T13:38:34.103Z,144.60
2023-04-02T13:43:32.434Z,127.30
2023-04-02T13:48:31.692Z,118.40
2023-04-02T13:53:32.037Z,108.50
2023-04-02T13:58:30.585Z,102.30
2023-04-02T14:03:29.540Z,90.80
2023-04-02T14:08:32.874Z,83.40
2023-04-02T14:13:28.180Z,77.80
2023-04-02T14:18:27.733Z,70.40
2023-04-02T14:23:27.632Z,64.70
2023-04-02T14:28:25.932Z,380.70
2023-04-02T14:33:25.218Z,321.50
2023-04-02T14:38:24.712Z,277.70
2023-04-02T14:43:24.039Z,450.50
2023-04-02T14:48:23.982Z,387.60
2023-04-02T14:53:22.577Z,361.70
2023-04-02T14:58:21.598Z,326.70
2023-04-02T15:03:21.230Z,288.00
2023-04-02T15:08:20.217Z,260.50
2023-04-02T15:13:19.340Z,243.00
2023-04-02T15:18:18.723Z,228.50
2023-04-02T15:23:18.143Z,208.70
2023-04-02T15:28:17.141Z,192.30
2023-04-02T15:33:16.228Z,180.90
2023-04-02T15:38:15.919Z,166.90
2023-04-02T15:43:16.005Z,287.30
2023-04-02T15:48:14.155Z,374.10
2023-04-02T15:53:14.113Z,322.70
2023-04-02T15:58:13.724Z,145.10
2023-04-02T16:03:11.966Z,183.70
2023-04-02T16:08:10.896Z,129.00
2023-04-02T16:13:11.199Z,85.60
2023-04-02T16:18:09.685Z,84.00
2023-04-02T16:23:08.949Z,62.20
2023-04-02T16:28:09.393Z,42.60
2023-04-02T16:33:07.571Z,31.00
2023-04-02T16:38:07.103Z,36.50
2023-04-02T16:43:05.827Z,31.40
2023-04-02T16:48:03.950Z,20.10
2023-04-02T16:53:04.357Z,20.10
2023-04-02T16:58:04.764Z,15.50
2023-04-02T17:03:03.909Z,11.80
2023-04-02T17:08:04.162Z,8.50
2023-04-02T17:13:01.321Z,48.90
2023-04-02T17:18:00.663Z,67.50
2023-04-02T17:23:05.702Z,41.10
2023-04-02T17:27:58.610Z,41.60
2023-04-02T17:32:59.025Z,39.50
2023-04-02T17:37:58.339Z,28.10
2023-04-02T17:42:56.684Z,55.00
2023-04-02T17:47:58.050Z,56.70
2023-04-02T17:52:54.980Z,43.30
2023-04-02T17:57:54.626Z,35.70
2023-04-02T18:02:54.999Z,17.60
2023-04-02T18:07:54.094Z,29.90
2023-04-02T18:12:52.330Z,63.80
2023-04-02T18:17:51.704Z,90.20
2023-04-02T18:22:50.867Z,47.40
2023-04-02T18:27:50.025Z,38.00
2023-04-02T18:32:50.173Z,24.20
2023-04-02T18:37:48.959Z,19.70
2023-04-02T18:42:48.637Z,18.60
2023-04-02T18:47:47.025Z,21.00
2023-04-02T18:52:47.191Z,19.50
2023-04-02T18:57:44.974Z,7.80
2023-04-02T19:02:44.767Z,41.30
2023-04-02T19:07:43.928Z,74.90
2023-04-02T19:12:44.265Z,40.30
2023-04-02T19:17:44.361Z,42.10
2023-04-02T19:22:41.732Z,23.90
2023-04-02T19:27:40.486Z,22.20
2023-04-02T19:32:40.178Z,16.50
2023-04-02T19:37:38.928Z,20.10
2023-04-02T19:42:47.194Z,40.20
2023-04-02T19:47:37.978Z,59.30
2023-04-02T19:52:37.176Z,56.50
2023-04-02T19:57:36.305Z,123.60
2023-04-02T20:02:36.720Z,89.90
2023-04-02T20:07:37.751Z,70.60
2023-04-02T20:12:34.002Z,55.60
2023-04-02T20:17:33.998Z,52.40
2023-04-02T20:22:36.411Z,34.10
2023-04-02T20:27:32.866Z,60.30
2023-04-02T20:32:31.871Z,73.40
2023-04-02T20:37:30.102Z,71.10
2023-04-02T20:42:31.736Z,82.70
2023-04-02T20:47:29.980Z,98.20
2023-04-02T20:52:27.937Z,94.70
2023-04-02T20:57:27.211Z,51.50
2023-04-02T21:02:28.505Z,44.60
2023-04-02T21:07:25.747Z,50.50
2023-04-02T21:12:25.024Z,30.60
2023-04-02T21:17:24.291Z,29.40
2023-04-02T21:22:25.775Z,18.20
2023-04-02T21:27:23.848Z,15.40
2023-04-02T21:32:24.204Z,14.70
2023-04-02T21:37:22.269Z,19.50
2023-04-02T21:42:20.521Z,69.30
2023-04-02T21:47:19.843Z,31.00
2023-04-02T21:52:20.073Z,33.60
2023-04-02T21:57:19.141Z,17.30
2023-04-02T22:02:17.506Z,69.20
2023-04-02T22:07:18.809Z,72.60
2023-04-02T22:12:17.113Z,47.10
2023-04-02T22:17:16.394Z,53.80
2023-04-02T22:22:17.666Z,38.70
2023-04-02T22:27:17.068Z,28.20
2023-04-02T22:32:13.157Z,21.40
2023-04-02T22:37:12.447Z,18.50
2023-04-02T22:42:11.697Z,18.30
2023-04-02T22:47:11.973Z,14.70
2023-04-02T22:52:11.247Z,15.60
2023-04-02T22:57:10.587Z,9.10
2023-04-02T23:02:09.819Z,9.20
2023-04-02T23:07:09.079Z,9.60
2023-04-02T23:12:07.339Z,6.10
2023-04-02T23:17:06.633Z,10.00
2023-04-02T23:22:06.910Z,5.40
2023-04-02T23:27:05.248Z,5.40
2023-04-02T23:32:08.341Z,3.60
2023-04-02T23:37:03.635Z,4.20
2023-04-02T23:42:03.697Z,3.60
2023-04-02T23:47:02.087Z,3.50
2023-04-02T23:52:00.207Z,3.10
2023-04-02T23:57:00.525Z,2.80
